ワルシャワ の空港の天気 - METARとTAF

ワルシャワ・フレデリック・ショパン空港 ( EPWA / WAW ) - ポーランド ワルシャワ
飛行場実況気象(Metar)
観測時間04/21 17:00 CEST (04/21 15:00 UTC)
風向・風速西北西 6m/s 瞬間風速11m/s
視程10km以上
天気現象
全天の8割程度の雲 雲底高度 1220m
気温15℃
湿度51%
気圧1018hPa
METAREPWA 211500Z 30011G22KT 270V330 9999 BKN040CB 15/05 Q1018 NOSIG
過去の天気等 Google飛行場航空写真 Wunderground天気予報

過去48時間のMETAR

飛行場予報(TAF)
発表時間: 4/21 16:30 CEST (4/21 14:30 UTC)
予報対象時間: 21日17時 CEST ~ 22日17時 CEST
風向・風速北北西 4m/s
視程10km以上
なし
21日17時 CEST ~ 21日23時 CEST に一時的に
風向・風速不定 8m/s 瞬間風速 13m/s
天気現象弱いしゅう雨
全天の8割程度の積乱雲 雲底高度 910m
21日19時 CEST ~ 21日21時 CEST に徐々に
風向・風速北東 5m/s
22日2時 CEST ~ 22日9時 CEST に 確率 40% で一時的に
全天の8割程度の雲 雲底高度 210m
全天の8割程度の雲 雲底高度 430m
22日5時 CEST ~ 22日8時 CEST に徐々に
風向・風速東 6m/s
22日13時 CEST ~ 22日17時 CEST に一時的に
風向・風速東南東 8m/s 瞬間風速 13m/s
TAF EPWA 211430Z 2115/2215 33008KT CAVOK
TEMPO 2115/2121 VRB15G25KT -SHRA BKN030CB
BECMG 2117/2119 04010KT
PROB40 TEMPO 2200/2207 BKN007 BKN014
BECMG 2203/2206 10011KT
TEMPO 2211/2215 11016G26KT